sensor_id;sensor_type;location;lat;lon;timestamp;pressure;altitude;pressure_sealevel;temperature;humidity
52927;BME280;40783;49.710;8.842;2023-12-07T00:01:15;99381.63;;;2.20;100.00
52927;BME280;40783;49.710;8.842;2023-12-07T00:03:42;99381.53;;;2.21;100.00
52927;BME280;40783;49.710;8.842;2023-12-07T00:06:08;99377.94;;;2.22;100.00
52927;BME280;40783;49.710;8.842;2023-12-07T00:08:33;99380.22;;;2.14;100.00
52927;BME280;40783;49.710;8.842;2023-12-07T00:10:58;99380.22;;;2.14;100.00
52927;BME280;40783;49.710;8.842;2023-12-07T00:13:23;99381.91;;;2.15;100.00
52927;BME280;40783;49.710;8.842;2023-12-07T00:15:48;99377.91;;;2.10;100.00
52927;BME280;40783;49.710;8.842;2023-12-07T00:18:14;99382.94;;;2.00;100.00
52927;BME280;40783;49.710;8.842;2023-12-07T00:20:39;99388.00;;;2.03;100.00
52927;BME280;40783;49.710;8.842;2023-12-07T00:23:04;99396.66;;;2.05;100.00
52927;BME280;40783;49.710;8.842;2023-12-07T00:25:29;99400.44;;;2.01;100.00
52927;BME280;40783;49.710;8.842;2023-12-07T00:27:55;99408.91;;;2.06;100.00
52927;BME280;40783;49.710;8.842;2023-12-07T00:30:20;99400.88;;;2.07;100.00
52927;BME280;40783;49.710;8.842;2023-12-07T00:32:45;99399.38;;;2.03;100.00
52927;BME280;40783;49.710;8.842;2023-12-07T00:35:13;99398.38;;;2.06;100.00
52927;BME280;40783;49.710;8.842;2023-12-07T00:37:39;99395.72;;;2.06;100.00
52927;BME280;40783;49.710;8.842;2023-12-07T00:40:07;99401.56;;;2.11;100.00
52927;BME280;40783;49.710;8.842;2023-12-07T00:42:35;99401.94;;;2.05;100.00
52927;BME280;40783;49.710;8.842;2023-12-07T00:45:00;99405.34;;;2.07;100.00
52927;BME280;40783;49.710;8.842;2023-12-07T00:47:27;99410.19;;;2.13;100.00
52927;BME280;40783;49.710;8.842;2023-12-07T00:49:53;99410.19;;;2.13;100.00
52927;BME280;40783;49.710;8.842;2023-12-07T00:52:18;99398.38;;;2.06;100.00
52927;BME280;40783;49.710;8.842;2023-12-07T00:54:43;99412.50;;;2.05;100.00
52927;BME280;40783;49.710;8.842;2023-12-07T00:57:11;99412.03;;;1.98;100.00
52927;BME280;40783;49.710;8.842;2023-12-07T00:59:36;99413.25;;;1.92;100.00
52927;BME280;40783;49.710;8.842;2023-12-07T01:02:02;99409.50;;;1.97;100.00
52927;BME280;40783;49.710;8.842;2023-12-07T01:04:28;99414.97;;;1.93;100.00
52927;BME280;40783;49.710;8.842;2023-12-07T01:06:53;99417.97;;;2.02;100.00
52927;BME280;40783;49.710;8.842;2023-12-07T01:09:23;99411.56;;;2.06;100.00
52927;BME280;40783;49.710;8.842;2023-12-07T01:11:53;99413.25;;;2.07;100.00
52927;BME280;40783;49.710;8.842;2023-12-07T01:14:18;99417.38;;;2.11;100.00
52927;BME280;40783;49.710;8.842;2023-12-07T01:16:44;99426.88;;;2.14;100.00
52927;BME280;40783;49.710;8.842;2023-12-07T01:19:11;99424.13;;;2.15;100.00
52927;BME280;40783;49.710;8.842;2023-12-07T01:21:39;99425.06;;;2.14;100.00
52927;BME280;40783;49.710;8.842;2023-12-07T01:24:04;99425.00;;;2.16;100.00
52927;BME280;40783;49.710;8.842;2023-12-07T01:26:30;99424.31;;;2.12;100.00
52927;BME280;40783;49.710;8.842;2023-12-07T01:28:57;99422.84;;;2.08;100.00
52927;BME280;40783;49.710;8.842;2023-12-07T01:31:22;99423.88;;;2.05;100.00
52927;BME280;40783;49.710;8.842;2023-12-07T01:33:48;99424.94;;;2.03;100.00
52927;BME280;40783;49.710;8.842;2023-12-07T01:36:15;99440.75;;;2.03;100.00
52927;BME280;40783;49.710;8.842;2023-12-07T01:38:40;99434.00;;;1.99;100.00
52927;BME280;40783;49.710;8.842;2023-12-07T01:41:08;99433.88;;;2.00;100.00
52927;BME280;40783;49.710;8.842;2023-12-07T01:43:33;99434.06;;;1.97;100.00
52927;BME280;40783;49.710;8.842;2023-12-07T01:46:01;99436.25;;;1.90;100.00
52927;BME280;40783;49.710;8.842;2023-12-07T01:48:26;99436.44;;;1.87;100.00
52927;BME280;40783;49.710;8.842;2023-12-07T01:50:55;99447.56;;;1.78;100.00
52927;BME280;40783;49.710;8.842;2023-12-07T01:53:24;99446.22;;;1.71;100.00
52927;BME280;40783;49.710;8.842;2023-12-07T01:55:51;99446.59;;;1.65;100.00
52927;BME280;40783;49.710;8.842;2023-12-07T01:58:17;99446.59;;;1.65;100.00
52927;BME280;40783;49.710;8.842;2023-12-07T02:00:43;99451.69;;;1.68;100.00
52927;BME280;40783;49.710;8.842;2023-12-07T02:03:12;99448.31;;;1.66;100.00
52927;BME280;40783;49.710;8.842;2023-12-07T02:05:40;99450.59;;;1.57;100.00
52927;BME280;40783;49.710;8.842;2023-12-07T02:08:07;99448.13;;;1.54;100.00
52927;BME280;40783;49.710;8.842;2023-12-07T02:10:32;99444.44;;;1.57;100.00
52927;BME280;40783;49.710;8.842;2023-12-07T02:12:59;99459.22;;;1.59;100.00
52927;BME280;40783;49.710;8.842;2023-12-07T02:15:25;99450.19;;;1.63;100.00
52927;BME280;40783;49.710;8.842;2023-12-07T02:23:19;99450.00;;;1.67;100.00
52927;BME280;40783;49.710;8.842;2023-12-07T02:25:48;99441.34;;;1.65;100.00
52927;BME280;40783;49.710;8.842;2023-12-07T02:28:16;99444.53;;;1.70;100.00
52927;BME280;40783;49.710;8.842;2023-12-07T02:30:42;99440.97;;;1.71;100.00
52927;BME280;40783;49.710;8.842;2023-12-07T02:33:07;99452.44;;;1.70;100.00
52927;BME280;40783;49.710;8.842;2023-12-07T02:35:33;99454.63;;;1.63;100.00
52927;BME280;40783;49.710;8.842;2023-12-07T02:37:58;99451.22;;;1.61;100.00
52927;BME280;40783;49.710;8.842;2023-12-07T02:40:26;99462.81;;;1.58;100.00
52927;BME280;40783;49.710;8.842;2023-12-07T02:42:57;99448.69;;;1.59;100.00
52927;BME280;40783;49.710;8.842;2023-12-07T02:45:23;99450.19;;;1.63;100.00
52927;BME280;40783;49.710;8.842;2023-12-07T02:47:48;99451.69;;;1.68;100.00
52927;BME280;40783;49.710;8.842;2023-12-07T02:50:14;99458.84;;;1.66;100.00
52927;BME280;40783;49.710;8.842;2023-12-07T02:52:41;99455.47;;;1.63;100.00
52927;BME280;40783;49.710;8.842;2023-12-07T02:55:09;99462.63;;;1.61;100.00
52927;BME280;40783;49.710;8.842;2023-12-07T02:57:34;99456.81;;;1.56;100.00
52927;BME280;40783;49.710;8.842;2023-12-07T02:59:59;99457.56;;;1.58;100.00
52927;BME280;40783;49.710;8.842;2023-12-07T03:02:25;99452.47;;;1.55;100.00
52927;BME280;40783;49.710;8.842;2023-12-07T03:04:50;99450.78;;;1.54;100.00
52927;BME280;40783;49.710;8.842;2023-12-07T03:07:15;99449.06;;;1.53;100.00
52927;BME280;40783;49.710;8.842;2023-12-07T03:09:40;99447.19;;;1.55;100.00
52927;BME280;40783;49.710;8.842;2023-12-07T03:12:06;99450.97;;;1.51;100.00
52927;BME280;40783;49.710;8.842;2023-12-07T03:14:31;99453.78;;;1.48;100.00
52927;BME280;40783;49.710;8.842;2023-12-07T03:16:56;99453.84;;;1.46;100.00
52927;BME280;40783;49.710;8.842;2023-12-07T03:19:24;99467.13;;;1.45;100.00
52927;BME280;40783;49.710;8.842;2023-12-07T03:21:49;99462.22;;;1.39;100.00
52927;BME280;40783;49.710;8.842;2023-12-07T03:24:16;99464.19;;;1.35;100.00
52927;BME280;40783;49.710;8.842;2023-12-07T03:26:44;99460.06;;;1.31;100.00
52927;BME280;40783;49.710;8.842;2023-12-07T03:29:09;99459.19;;;1.30;100.00
52927;BME280;40783;49.710;8.842;2023-12-07T03:31:34;99466.44;;;1.27;100.00
52927;BME280;40783;49.710;8.842;2023-12-07T03:34:00;99464.66;;;1.27;100.00
52927;BME280;40783;49.710;8.842;2023-12-07T03:36:26;99456.00;;;1.25;100.00
52927;BME280;40783;49.710;8.842;2023-12-07T03:38:51;99458.81;;;1.22;100.00
52927;BME280;40783;49.710;8.842;2023-12-07T03:41:16;99460.59;;;1.22;100.00
52927;BME280;40783;49.710;8.842;2023-12-07T03:43:44;99466.06;;;1.18;100.00
52927;BME280;40783;49.710;8.842;2023-12-07T03:46:09;99465.38;;;1.15;100.00
52927;BME280;40783;49.710;8.842;2023-12-07T03:48:34;99461.97;;;1.13;100.00
52927;BME280;40783;49.710;8.842;2023-12-07T03:50:59;99466.50;;;1.11;100.00
52927;BME280;40783;49.710;8.842;2023-12-07T03:53:27;99467.25;;;1.13;100.00
52927;BME280;40783;49.710;8.842;2023-12-07T03:55:55;99470.81;;;1.12;100.00
52927;BME280;40783;49.710;8.842;2023-12-07T03:58:20;99467.25;;;1.13;100.00
52927;BME280;40783;49.710;8.842;2023-12-07T04:00:45;99480.34;;;1.14;100.00
52927;BME280;40783;49.710;8.842;2023-12-07T04:03:11;99484.00;;;1.12;100.00
52927;BME280;40783;49.710;8.842;2023-12-07T04:05:36;99490.19;;;1.11;100.00
52927;BME280;40783;49.710;8.842;2023-12-07T04:08:04;99492.28;;;1.06;100.00
52927;BME280;40783;49.710;8.842;2023-12-07T04:10:31;99478.34;;;1.03;100.00
52927;BME280;40783;49.710;8.842;2023-12-07T04:12:59;99475.72;;;1.03;100.00
52927;BME280;40783;49.710;8.842;2023-12-07T04:15:24;99481.91;;;1.02;100.00
52927;BME280;40783;49.710;8.842;2023-12-07T04:17:50;99482.44;;;0.93;100.00
52927;BME280;40783;49.710;8.842;2023-12-07T04:20:17;99479.06;;;0.91;100.00
52927;BME280;40783;49.710;8.842;2023-12-07T04:22:45;99478.69;;;0.97;100.00
52927;BME280;40783;49.710;8.842;2023-12-07T04:25:10;99482.94;;;1.00;100.00
52927;BME280;40783;49.710;8.842;2023-12-07T04:27:38;99483.78;;;1.00;100.00
52927;BME280;40783;49.710;8.842;2023-12-07T04:30:03;99490.94;;;0.98;100.00
52927;BME280;40783;49.710;8.842;2023-12-07T04:32:28;99484.78;;;0.98;100.00
52927;BME280;40783;49.710;8.842;2023-12-07T04:34:54;99489.31;;;0.96;100.00
52927;BME280;40783;49.710;8.842;2023-12-07T04:37:21;99495.50;;;0.95;100.00
52927;BME280;40783;49.710;8.842;2023-12-07T04:39:49;99485.91;;;0.94;100.00
52927;BME280;40783;49.710;8.842;2023-12-07T04:42:14;99497.38;;;0.93;100.00
52927;BME280;40783;49.710;8.842;2023-12-07T04:44:39;99494.69;;;0.94;100.00
52927;BME280;40783;49.710;8.842;2023-12-07T04:47:05;99486.53;;;0.83;100.00
52927;BME280;40783;49.710;8.842;2023-12-07T04:49:30;99499.59;;;0.84;100.00
52927;BME280;40783;49.710;8.842;2023-12-07T04:51:55;99502.16;;;0.86;100.00
52927;BME280;40783;49.710;8.842;2023-12-07T04:54:20;99502.94;;;0.88;100.00
52927;BME280;40783;49.710;8.842;2023-12-07T04:56:48;99502.16;;;0.86;100.00
52927;BME280;40783;49.710;8.842;2023-12-07T04:59:13;99518.44;;;0.93;100.00
52927;BME280;40783;49.710;8.842;2023-12-07T05:01:38;99513.69;;;0.99;100.00
52927;BME280;40783;49.710;8.842;2023-12-07T05:04:04;99510.31;;;0.97;100.00
52927;BME280;40783;49.710;8.842;2023-12-07T05:06:29;99505.03;;;0.97;100.00
52927;BME280;40783;49.710;8.842;2023-12-07T05:08:55;99505.03;;;0.97;100.00
52927;BME280;40783;49.710;8.842;2023-12-07T05:11:20;99504.09;;;0.98;100.00
52927;BME280;40783;49.710;8.842;2023-12-07T05:13:45;99515.75;;;0.94;100.00
52927;BME280;40783;49.710;8.842;2023-12-07T05:16:13;99512.69;;;0.86;100.00
52927;BME280;40783;49.710;8.842;2023-12-07T05:18:38;99511.47;;;0.92;100.00
52927;BME280;40783;49.710;8.842;2023-12-07T05:21:03;99508.78;;;0.93;100.00
52927;BME280;40783;49.710;8.842;2023-12-07T05:23:29;99510.31;;;0.97;100.00
52927;BME280;40783;49.710;8.842;2023-12-07T05:25:54;99512.00;;;0.98;100.00
52927;BME280;40783;49.710;8.842;2023-12-07T05:28:20;99518.78;;;1.02;100.00
52927;BME280;40783;49.710;8.842;2023-12-07T05:30:47;99509.75;;;1.07;100.00
52927;BME280;40783;49.710;8.842;2023-12-07T05:33:13;99521.25;;;1.06;100.00
52927;BME280;40783;49.710;8.842;2023-12-07T05:35:38;99516.91;;;1.05;100.00
52927;BME280;40783;49.710;8.842;2023-12-07T05:38:03;99507.03;;;1.08;100.00
52927;BME280;40783;49.710;8.842;2023-12-07T05:40:29;99507.88;;;1.09;100.00
52927;BME280;40783;49.710;8.842;2023-12-07T05:42:57;99505.81;;;1.14;100.00
52927;BME280;40783;49.710;8.842;2023-12-07T05:45:22;99504.47;;;1.07;100.00
52927;BME280;40783;49.710;8.842;2023-12-07T05:47:47;99513.34;;;1.06;100.00
52927;BME280;40783;49.710;8.842;2023-12-07T05:50:12;99511.44;;;1.08;100.00
52927;BME280;40783;49.710;8.842;2023-12-07T05:52:38;99515.69;;;1.10;100.00
52927;BME280;40783;49.710;8.842;2023-12-07T05:55:04;99514.66;;;1.13;100.00
52927;BME280;40783;49.710;8.842;2023-12-07T05:57:29;99512.78;;;1.15;100.00
52927;BME280;40783;49.710;8.842;2023-12-07T05:59:57;99509.03;;;1.19;100.00
52927;BME280;40783;49.710;8.842;2023-12-07T06:02:22;99514.13;;;1.22;100.00
52927;BME280;40783;49.710;8.842;2023-12-07T06:04:47;99508.03;;;1.22;100.00
52927;BME280;40783;49.710;8.842;2023-12-07T06:07:12;99517.69;;;1.21;100.00
52927;BME280;40783;49.710;8.842;2023-12-07T06:09:40;99518.81;;;1.17;100.00
52927;BME280;40783;49.710;8.842;2023-12-07T06:12:06;99530.13;;;1.19;100.00
52927;BME280;40783;49.710;8.842;2023-12-07T06:14:31;99533.69;;;1.18;100.00
52927;BME280;40783;49.710;8.842;2023-12-07T06:16:59;99525.03;;;1.16;100.00
52927;BME280;40783;49.710;8.842;2023-12-07T06:19:24;99530.13;;;1.19;100.00
52927;BME280;40783;49.710;8.842;2023-12-07T06:21:49;99523.16;;;1.18;100.00
52927;BME280;40783;49.710;8.842;2023-12-07T06:24:15;99519.75;;;1.16;100.00
52927;BME280;40783;49.710;8.842;2023-12-07T06:26:40;99519.00;;;1.14;100.00
52927;BME280;40783;49.710;8.842;2023-12-07T06:29:05;99519.75;;;1.16;100.00
52927;BME280;40783;49.710;8.842;2023-12-07T06:31:32;99526.13;;;1.12;100.00
52927;BME280;40783;49.710;8.842;2023-12-07T06:34:00;99523.25;;;1.16;100.00
52927;BME280;40783;49.710;8.842;2023-12-07T06:36:25;99521.44;;;1.17;100.00
52927;BME280;40783;49.710;8.842;2023-12-07T06:38:52;99517.53;;;1.24;100.00
52927;BME280;40783;49.710;8.842;2023-12-07T06:41:17;99515.66;;;1.26;100.00
52927;BME280;40783;49.710;8.842;2023-12-07T06:43:44;99522.72;;;1.26;100.00
52927;BME280;40783;49.710;8.842;2023-12-07T06:46:13;99520.91;;;1.26;100.00
52927;BME280;40783;49.710;8.842;2023-12-07T06:48:39;99539.28;;;1.28;100.00
52927;BME280;40783;49.710;8.842;2023-12-07T06:51:04;99528.75;;;1.28;100.00
52927;BME280;40783;49.710;8.842;2023-12-07T06:53:30;99539.94;;;1.31;100.00
52927;BME280;40783;49.710;8.842;2023-12-07T06:55:56;99543.53;;;1.30;100.00
52927;BME280;40783;49.710;8.842;2023-12-07T06:58:21;99545.22;;;1.31;100.00
52927;BME280;40783;49.710;8.842;2023-12-07T07:00:47;99541.00;;;1.29;100.00
52927;BME280;40783;49.710;8.842;2023-12-07T07:03:16;99542.59;;;1.31;100.00
52927;BME280;40783;49.710;8.842;2023-12-07T07:05:41;99539.19;;;1.29;100.00
52927;BME280;40783;49.710;8.842;2023-12-07T07:08:07;99542.88;;;1.27;100.00
52927;BME280;40783;49.710;8.842;2023-12-07T07:10:39;99552.38;;;1.29;100.00
52927;BME280;40783;49.710;8.842;2023-12-07T07:13:05;99552.38;;;1.29;100.00
52927;BME280;40783;49.710;8.842;2023-12-07T07:15:30;99555.88;;;1.30;100.00
52927;BME280;40783;49.710;8.842;2023-12-07T07:17:55;99554.06;;;1.30;100.00
52927;BME280;40783;49.710;8.842;2023-12-07T07:20:20;99558.56;;;1.28;100.00
52927;BME280;40783;49.710;8.842;2023-12-07T07:22:47;99560.91;;;1.18;100.00
52927;BME280;40783;49.710;8.842;2023-12-07T07:25:12;99553.41;;;1.11;100.00
52927;BME280;40783;49.710;8.842;2023-12-07T07:27:40;99563.00;;;1.12;100.00
52927;BME280;40783;49.710;8.842;2023-12-07T07:30:05;99561.13;;;1.14;100.00
52927;BME280;40783;49.710;8.842;2023-12-07T07:32:33;99568.38;;;1.10;100.00
52927;BME280;40783;49.710;8.842;2023-12-07T07:35:01;99567.34;;;1.13;100.00
52927;BME280;40783;49.710;8.842;2023-12-07T07:37:26;99569.56;;;1.21;100.00
52927;BME280;40783;49.710;8.842;2023-12-07T07:39:51;99570.31;;;1.23;100.00
52927;BME280;40783;49.710;8.842;2023-12-07T07:42:17;99574.19;;;1.31;100.00
52927;BME280;40783;49.710;8.842;2023-12-07T07:44:42;99567.06;;;1.33;100.00
52927;BME280;40783;49.710;8.842;2023-12-07T07:47:07;99564.59;;;1.30;100.00
52927;BME280;40783;49.710;8.842;2023-12-07T07:49:33;99572.97;;;1.37;100.00
52927;BME280;40783;49.710;8.842;2023-12-07T07:51:58;99577.25;;;1.40;100.00
52927;BME280;40783;49.710;8.842;2023-12-07T07:54:26;99572.56;;;1.45;100.00
52927;BME280;40783;49.710;8.842;2023-12-07T07:56:51;99581.88;;;1.51;100.00
52927;BME280;40783;49.710;8.842;2023-12-07T07:59:16;99577.66;;;1.48;100.00
52927;BME280;40783;49.710;8.842;2023-12-07T08:01:41;99568.13;;;1.45;100.00
52927;BME280;40783;49.710;8.842;2023-12-07T08:04:06;99562.84;;;1.45;100.00
52927;BME280;40783;49.710;8.842;2023-12-07T08:06:32;99573.31;;;1.47;100.00
52927;BME280;40783;49.710;8.842;2023-12-07T08:08:57;99565.47;;;1.45;100.00
52927;BME280;40783;49.710;8.842;2023-12-07T08:11:22;99553.00;;;1.49;100.00
52927;BME280;40783;49.710;8.842;2023-12-07T08:13:50;99551.28;;;1.48;100.00
52927;BME280;40783;49.710;8.842;2023-12-07T08:16:16;99550.25;;;1.51;100.00
52927;BME280;40783;49.710;8.842;2023-12-07T08:18:41;99545.84;;;1.51;100.00
52927;BME280;40783;49.710;8.842;2023-12-07T08:21:06;99546.69;;;1.52;100.00
52927;BME280;40783;49.710;8.842;2023-12-07T08:23:35;99538.88;;;1.50;100.00
52927;BME280;40783;49.710;8.842;2023-12-07T08:26:00;99529.28;;;1.49;100.00
52927;BME280;40783;49.710;8.842;2023-12-07T08:28:26;99532.91;;;1.46;100.00
52927;BME280;40783;49.710;8.842;2023-12-07T08:30:51;99526.81;;;1.46;100.00
52927;BME280;40783;49.710;8.842;2023-12-07T08:33:17;99530.56;;;1.42;100.00
52927;BME280;40783;49.710;8.842;2023-12-07T08:35:44;99520.03;;;1.42;100.00
52927;BME280;40783;49.710;8.842;2023-12-07T08:38:12;99519.28;;;1.40;100.00
52927;BME280;40783;49.710;8.842;2023-12-07T08:40:37;99520.03;;;1.42;100.00
52927;BME280;40783;49.710;8.842;2023-12-07T08:43:03;99511.00;;;1.46;100.00
52927;BME280;40783;49.710;8.842;2023-12-07T08:45:29;99509.13;;;1.48;100.00
52927;BME280;40783;49.710;8.842;2023-12-07T08:47:54;99501.03;;;1.51;100.00
52927;BME280;40783;49.710;8.842;2023-12-07T08:50:19;99504.50;;;1.52;100.00
52927;BME280;40783;49.710;8.842;2023-12-07T08:52:44;99513.47;;;1.49;100.00
52927;BME280;40783;49.710;8.842;2023-12-07T08:55:09;99506.50;;;1.48;100.00
52927;BME280;40783;49.710;8.842;2023-12-07T08:57:35;99508.53;;;1.43;100.00
52927;BME280;40783;49.710;8.842;2023-12-07T09:00:00;99513.91;;;1.41;100.00
52927;BME280;40783;49.710;8.842;2023-12-07T09:02:27;99509.31;;;1.45;100.00
52927;BME280;40783;49.710;8.842;2023-12-07T09:04:55;99510.81;;;1.49;100.00
52927;BME280;40783;49.710;8.842;2023-12-07T09:07:20;99503.69;;;1.51;100.00
52927;BME280;40783;49.710;8.842;2023-12-07T09:09:45;99518.44;;;1.54;100.00
52927;BME280;40783;49.710;8.842;2023-12-07T09:12:13;99519.13;;;1.57;100.00
52927;BME280;40783;49.710;8.842;2023-12-07T09:14:39;99514.69;;;1.58;100.00
52927;BME280;40783;49.710;8.842;2023-12-07T09:17:04;99511.22;;;1.57;100.00
52927;BME280;40783;49.710;8.842;2023-12-07T09:19:32;99505.84;;;1.59;100.00
52927;BME280;40783;49.710;8.842;2023-12-07T09:21:57;99511.94;;;1.59;100.00
52927;BME280;40783;49.710;8.842;2023-12-07T09:24:23;99509.31;;;1.59;100.00
52927;BME280;40783;49.710;8.842;2023-12-07T09:26:51;99510.63;;;1.52;100.00
52927;BME280;40783;49.710;8.842;2023-12-07T09:29:18;99513.84;;;1.57;100.00
52927;BME280;40783;49.710;8.842;2023-12-07T09:31:46;99506.66;;;1.59;100.00
52927;BME280;40783;49.710;8.842;2023-12-07T09:34:11;99503.50;;;1.54;100.00
52927;BME280;40783;49.710;8.842;2023-12-07T09:36:42;99501.41;;;1.59;100.00
52927;BME280;40783;49.710;8.842;2023-12-07T09:39:07;99506.88;;;1.56;100.00
52927;BME280;40783;49.710;8.842;2023-12-07T09:41:34;99503.50;;;1.54;100.00
52927;BME280;40783;49.710;8.842;2023-12-07T09:44:00;99503.31;;;1.57;100.00
52927;BME280;40783;49.710;8.842;2023-12-07T09:46:28;99501.97;;;1.50;100.00
52927;BME280;40783;49.710;8.842;2023-12-07T09:48:57;99512.53;;;1.50;100.00
52927;BME280;40783;49.710;8.842;2023-12-07T09:51:22;99516.66;;;1.54;100.00
52927;BME280;40783;49.710;8.842;2023-12-07T09:53:48;99525.13;;;1.45;100.00
52927;BME280;40783;49.710;8.842;2023-12-07T09:56:14;99522.19;;;1.50;100.00
52927;BME280;40783;49.710;8.842;2023-12-07T09:58:40;99519.66;;;1.48;100.00
52927;BME280;40783;49.710;8.842;2023-12-07T10:01:05;99514.22;;;1.51;100.00
52927;BME280;40783;49.710;8.842;2023-12-07T10:03:30;99521.00;;;1.55;100.00
52927;BME280;40783;49.710;8.842;2023-12-07T10:05:58;99518.91;;;1.60;100.00
52927;BME280;40783;49.710;8.842;2023-12-07T10:08:25;99513.56;;;1.62;100.00
52927;BME280;40783;49.710;8.842;2023-12-07T10:10:53;99511.75;;;1.62;100.00
52927;BME280;40783;49.710;8.842;2023-12-07T10:13:31;99513.84;;;1.57;100.00
52927;BME280;40783;49.710;8.842;2023-12-07T10:16:12;99499.16;;;1.53;100.00
52927;BME280;40783;49.710;8.842;2023-12-07T10:18:40;99503.16;;;1.44;100.00
52927;BME280;40783;49.710;8.842;2023-12-07T10:21:11;99500.81;;;1.40;100.00
52927;BME280;40783;49.710;8.842;2023-12-07T10:23:37;99488.94;;;1.32;100.00
52927;BME280;40783;49.710;8.842;2023-12-07T10:26:05;99488.94;;;1.32;100.00
52927;BME280;40783;49.710;8.842;2023-12-07T10:28:33;99482.34;;;1.25;100.00
52927;BME280;40783;49.710;8.842;2023-12-07T10:30:58;99492.88;;;1.25;100.00
52927;BME280;40783;49.710;8.842;2023-12-07T10:33:25;99485.25;;;1.21;100.00
52927;BME280;40783;49.710;8.842;2023-12-07T10:35:50;99474.03;;;1.17;100.00
52927;BME280;40783;49.710;8.842;2023-12-07T10:38:15;99479.31;;;1.17;100.00
52927;BME280;40783;49.710;8.842;2023-12-07T10:40:41;99477.25;;;1.22;100.00
52927;BME280;40783;49.710;8.842;2023-12-07T10:43:07;99473.69;;;1.23;100.00
52927;BME280;40783;49.710;8.842;2023-12-07T10:45:33;99471.03;;;1.23;100.00
52927;BME280;40783;49.710;8.842;2023-12-07T10:48:03;99467.41;;;1.26;100.00
52927;BME280;40783;49.710;8.842;2023-12-07T10:50:32;99466.72;;;1.22;100.00
52927;BME280;40783;49.710;8.842;2023-12-07T10:52:59;99469.53;;;1.19;100.00
52927;BME280;40783;49.710;8.842;2023-12-07T10:55:29;99466.72;;;1.22;100.00
52927;BME280;40783;49.710;8.842;2023-12-07T10:57:59;99465.50;;;1.28;100.00
52927;BME280;40783;49.710;8.842;2023-12-07T11:00:25;99462.03;;;1.27;100.00
52927;BME280;40783;49.710;8.842;2023-12-07T11:02:55;99462.31;;;1.23;100.00
52927;BME280;40783;49.710;8.842;2023-12-07T11:05:23;99459.56;;;1.24;100.00
52927;BME280;40783;49.710;8.842;2023-12-07T11:07:52;99454.28;;;1.24;100.00
52927;BME280;40783;49.710;8.842;2023-12-07T11:10:23;99448.84;;;1.27;100.00
52927;BME280;40783;49.710;8.842;2023-12-07T11:13:00;99447.06;;;1.28;100.00
52927;BME280;40783;49.710;8.842;2023-12-07T11:15:30;99445.94;;;1.32;100.00
52927;BME280;40783;49.710;8.842;2023-12-07T11:17:55;99437.00;;;1.35;100.00
52927;BME280;40783;49.710;8.842;2023-12-07T11:20:21;99438.13;;;1.30;100.00
52927;BME280;40783;49.710;8.842;2023-12-07T11:22:46;99431.16;;;1.29;100.00
52927;BME280;40783;49.710;8.842;2023-12-07T11:25:14;99425.69;;;1.32;100.00
52927;BME280;40783;49.710;8.842;2023-12-07T11:27:39;99421.75;;;1.40;100.00
52927;BME280;40783;49.710;8.842;2023-12-07T11:30:05;99417.44;;;1.39;100.00
52927;BME280;40783;49.710;8.842;2023-12-07T11:32:31;99413.09;;;1.38;100.00
52927;BME280;40783;49.710;8.842;2023-12-07T11:35:03;99408.84;;;1.35;100.00
52927;BME280;40783;49.710;8.842;2023-12-07T11:37:59;99398.41;;;1.33;100.00
52927;BME280;40783;49.710;8.842;2023-12-07T11:40:14;99403.78;;;1.32;100.00
52927;BME280;40783;49.710;8.842;2023-12-07T11:42:42;99399.94;;;1.38;100.00
52927;BME280;40783;49.710;8.842;2023-12-07T11:45:08;99405.19;;;1.38;100.00
52927;BME280;40783;49.710;8.842;2023-12-07T11:47:35;99393.72;;;1.39;100.00
52927;BME280;40783;49.710;8.842;2023-12-07T11:50:02;99400.50;;;1.43;100.00
52927;BME280;40783;49.710;8.842;2023-12-07T11:52:28;99395.88;;;1.46;100.00
52927;BME280;40783;49.710;8.842;2023-12-07T11:54:53;99387.78;;;1.50;100.00
52927;BME280;40783;49.710;8.842;2023-12-07T11:57:20;99380.72;;;1.50;100.00
52927;BME280;40783;49.710;8.842;2023-12-07T11:59:48;99376.22;;;1.52;100.00
52927;BME280;40783;49.710;8.842;2023-12-07T12:02:13;99368.38;;;1.51;100.00
52927;BME280;40783;49.710;8.842;2023-12-07T12:04:42;99359.66;;;1.50;100.00
52927;BME280;40783;49.710;8.842;2023-12-07T12:07:07;99354.00;;;1.56;100.00
52927;BME280;40783;49.710;8.842;2023-12-07T12:09:35;99359.16;;;1.58;100.00
52927;BME280;40783;49.710;8.842;2023-12-07T12:12:00;99350.41;;;1.57;100.00
52927;BME280;40783;49.710;8.842;2023-12-07T12:14:25;99351.13;;;1.59;100.00
52927;BME280;40783;49.710;8.842;2023-12-07T12:16:51;99331.03;;;1.58;100.00
52927;BME280;40783;49.710;8.842;2023-12-07T12:19:16;99334.38;;;1.60;100.00
52927;BME280;40783;49.710;8.842;2023-12-07T12:21:41;99340.03;;;1.69;100.00
52927;BME280;40783;49.710;8.842;2023-12-07T12:24:08;99321.50;;;1.70;100.00
52927;BME280;40783;49.710;8.842;2023-12-07T12:26:36;99327.31;;;1.75;100.00
52927;BME280;40783;49.710;8.842;2023-12-07T12:29:03;99326.66;;;1.72;100.00
52927;BME280;40783;49.710;8.842;2023-12-07T12:31:29;99321.09;;;1.76;100.00
52927;BME280;40783;49.710;8.842;2023-12-07T12:33:54;99315.91;;;1.75;100.00
52927;BME280;40783;49.710;8.842;2023-12-07T12:36:20;99314.22;;;1.74;100.00
52927;BME280;40783;49.710;8.842;2023-12-07T12:38:48;99315.91;;;1.75;100.00
52927;BME280;40783;49.710;8.842;2023-12-07T12:41:19;99322.13;;;1.74;100.00
52927;BME280;40783;49.710;8.842;2023-12-07T12:43:45;99319.69;;;1.71;100.00
52927;BME280;40783;49.710;8.842;2023-12-07T12:46:11;99317.53;;;1.63;100.00
52927;BME280;40783;49.710;8.842;2023-12-07T12:48:36;99318.38;;;1.63;100.00
52927;BME280;40783;49.710;8.842;2023-12-07T12:51:08;99312.16;;;1.65;100.00
52927;BME280;40783;49.710;8.842;2023-12-07T12:53:33;99313.84;;;1.66;100.00
52927;BME280;40783;49.710;8.842;2023-12-07T12:55:59;99321.75;;;1.66;100.00
52927;BME280;40783;49.710;8.842;2023-12-07T12:58:26;99310.94;;;1.70;100.00
52927;BME280;40783;49.710;8.842;2023-12-07T13:00:51;99305.94;;;1.66;100.00